createdAt,value
2023-03-15T00:01:46.636Z,4.10
2023-03-15T00:04:14.078Z,4.00
2023-03-15T00:06:40.958Z,4.10
2023-03-15T00:09:07.771Z,4.10
2023-03-15T00:11:34.586Z,4.20
2023-03-15T00:14:02.558Z,4.10
2023-03-15T00:16:29.554Z,4.10
2023-03-15T00:18:56.431Z,4.20
2023-03-15T00:21:23.693Z,4.00
2023-03-15T00:23:51.033Z,3.90
2023-03-15T00:26:18.013Z,3.80
2023-03-15T00:28:44.751Z,3.80
2023-03-15T00:31:23.324Z,3.80
2023-03-15T00:33:53.677Z,3.90
2023-03-15T00:36:23.577Z,3.80
2023-03-15T00:38:51.311Z,3.70
2023-03-15T00:41:19.401Z,3.60
2023-03-15T00:43:46.880Z,3.60
2023-03-15T00:46:14.523Z,3.50
2023-03-15T00:48:41.150Z,3.70
2023-03-15T00:51:11.199Z,3.70
2023-03-15T00:53:39.839Z,3.80
2023-03-15T00:56:10.622Z,3.60
2023-03-15T00:58:37.881Z,3.40
2023-03-15T01:01:31.045Z,3.40
2023-03-15T01:03:58.184Z,3.40
2023-03-15T01:06:27.614Z,3.50
2023-03-15T01:08:56.682Z,3.50
2023-03-15T01:11:26.089Z,3.60
2023-03-15T01:13:55.023Z,3.60
2023-03-15T01:16:22.052Z,3.60
2023-03-15T01:18:49.071Z,3.70
2023-03-15T01:21:16.281Z,3.60
2023-03-15T01:23:43.114Z,3.80
2023-03-15T01:26:13.689Z,3.80
2023-03-15T01:28:40.756Z,3.80
2023-03-15T01:31:09.654Z,3.80
2023-03-15T01:33:36.316Z,3.80
2023-03-15T01:36:05.891Z,3.80
2023-03-15T01:38:32.921Z,3.90
2023-03-15T01:41:00.268Z,4.00
2023-03-15T01:43:28.675Z,3.90
2023-03-15T01:46:02.297Z,3.90
2023-03-15T01:48:46.877Z,3.80
2023-03-15T01:51:41.741Z,3.90
2023-03-15T01:54:32.532Z,3.80
2023-03-15T01:57:12.881Z,3.80
2023-03-15T01:59:46.294Z,3.80
2023-03-15T02:02:14.911Z,3.80
2023-03-15T02:04:49.795Z,3.70
2023-03-15T02:07:20.280Z,3.60
2023-03-15T02:09:59.176Z,3.70
2023-03-15T02:12:27.594Z,3.70
2023-03-15T02:14:54.736Z,3.60
2023-03-15T02:17:28.556Z,3.70
2023-03-15T02:20:08.807Z,3.60
2023-03-15T02:22:52.735Z,3.60
2023-03-15T02:25:42.498Z,3.60
2023-03-15T02:28:11.905Z,3.50
2023-03-15T02:30:39.022Z,3.40
2023-03-15T02:33:10.416Z,3.40
2023-03-15T02:35:37.111Z,3.40
2023-03-15T02:38:03.892Z,3.40
2023-03-15T02:40:31.113Z,3.30
2023-03-15T02:43:08.574Z,3.30
2023-03-15T02:45:37.266Z,3.30
2023-03-15T02:48:06.399Z,3.30
2023-03-15T02:50:33.150Z,3.30
2023-03-15T02:52:59.787Z,3.30
2023-03-15T02:55:26.491Z,3.30
2023-03-15T02:57:53.078Z,3.40
2023-03-15T03:00:20.408Z,3.30
2023-03-15T03:02:48.283Z,3.40
2023-03-15T03:05:16.282Z,3.30
2023-03-15T03:07:43.008Z,3.20
2023-03-15T03:10:12.079Z,3.20
2023-03-15T03:12:39.328Z,3.10
2023-03-15T03:15:07.220Z,3.00
2023-03-15T03:17:37.373Z,3.00
2023-03-15T03:20:09.861Z,3.00
2023-03-15T03:22:37.864Z,3.00
2023-03-15T03:25:06.305Z,3.00
2023-03-15T03:27:36.603Z,2.90
2023-03-15T03:30:09.128Z,2.90
2023-03-15T03:32:36.068Z,2.90
2023-03-15T03:35:02.920Z,2.90
2023-03-15T03:37:30.884Z,2.90
2023-03-15T03:39:58.281Z,2.90
2023-03-15T03:42:25.213Z,2.80
2023-03-15T03:44:53.975Z,2.80
2023-03-15T03:47:21.389Z,2.80
2023-03-15T03:49:48.102Z,2.90
2023-03-15T03:52:14.757Z,2.90
2023-03-15T03:54:42.685Z,2.90
2023-03-15T03:57:10.673Z,3.00
2023-03-15T03:59:37.438Z,2.90
2023-03-15T04:02:04.354Z,2.90
2023-03-15T04:04:31.056Z,2.90
2023-03-15T04:06:57.700Z,2.90
2023-03-15T04:09:25.113Z,2.90
2023-03-15T04:11:51.801Z,2.90
2023-03-15T04:14:18.632Z,2.80
2023-03-15T04:16:45.328Z,2.90
2023-03-15T04:19:12.880Z,2.80
2023-03-15T04:21:39.586Z,2.70
2023-03-15T04:24:07.394Z,2.80
2023-03-15T04:26:34.579Z,2.60
2023-03-15T04:29:01.398Z,2.70
2023-03-15T04:31:28.104Z,2.40
2023-03-15T04:33:55.624Z,2.60
2023-03-15T04:36:23.686Z,2.70
2023-03-15T04:38:50.987Z,2.60
2023-03-15T04:41:18.663Z,2.50
2023-03-15T04:43:45.959Z,2.50
2023-03-15T04:46:12.642Z,2.60
2023-03-15T04:48:39.419Z,2.50
2023-03-15T04:51:06.170Z,2.30
2023-03-15T04:53:33.022Z,2.30
2023-03-15T04:55:59.728Z,2.40
2023-03-15T04:58:26.368Z,2.50
2023-03-15T05:00:54.064Z,2.50
2023-03-15T05:03:21.040Z,2.40
2023-03-15T05:05:47.786Z,2.40
2023-03-15T05:08:15.493Z,2.50
2023-03-15T05:10:42.276Z,2.50
2023-03-15T05:13:08.883Z,2.50
2023-03-15T05:15:35.490Z,2.50
2023-03-15T05:18:02.137Z,2.40
2023-03-15T05:20:28.757Z,2.20
2023-03-15T05:22:55.438Z,2.40
2023-03-15T05:25:23.308Z,2.40
2023-03-15T05:27:50.260Z,2.40
2023-03-15T05:30:17.100Z,2.50
2023-03-15T05:32:45.091Z,2.50
2023-03-15T05:35:13.422Z,2.30
2023-03-15T05:37:40.278Z,2.20
2023-03-15T05:40:08.481Z,2.20
2023-03-15T05:42:35.391Z,2.30
2023-03-15T05:45:02.242Z,2.40
2023-03-15T05:47:28.876Z,2.30
2023-03-15T05:49:55.539Z,2.40
2023-03-15T05:52:22.162Z,2.30
2023-03-15T05:54:48.797Z,2.40
2023-03-15T05:57:15.665Z,2.40
2023-03-15T05:59:42.311Z,2.30
2023-03-15T06:02:09.054Z,2.50
2023-03-15T06:04:37.882Z,2.50
2023-03-15T06:07:04.827Z,2.70
2023-03-15T06:09:31.746Z,2.70
2023-03-15T06:11:59.081Z,2.50
2023-03-15T06:14:27.200Z,2.60
2023-03-15T06:16:54.101Z,2.70
2023-03-15T06:19:21.699Z,2.70
2023-03-15T06:21:48.988Z,2.60
2023-03-15T06:24:15.893Z,2.60
2023-03-15T06:26:42.700Z,2.40
2023-03-15T06:29:09.314Z,2.50
2023-03-15T06:31:35.947Z,2.50
2023-03-15T06:34:02.636Z,2.40
2023-03-15T06:36:30.813Z,2.50
2023-03-15T06:38:57.513Z,2.60
2023-03-15T06:41:24.516Z,2.50
2023-03-15T06:43:51.200Z,2.50
2023-03-15T06:46:18.006Z,2.50
2023-03-15T06:48:44.655Z,2.50
2023-03-15T06:51:11.351Z,2.40
2023-03-15T06:53:37.993Z,2.60
2023-03-15T06:56:04.991Z,2.50
2023-03-15T06:58:31.737Z,2.60
2023-03-15T07:00:58.370Z,2.60
2023-03-15T07:03:25.030Z,2.70
2023-03-15T07:05:54.015Z,2.60
2023-03-15T07:08:22.600Z,2.60
2023-03-15T07:10:50.325Z,2.70
2023-03-15T07:13:17.601Z,2.80
2023-03-15T07:15:44.614Z,2.70
2023-03-15T07:18:11.271Z,2.90
2023-03-15T07:20:38.235Z,3.00
2023-03-15T07:23:05.106Z,3.00
2023-03-15T07:25:33.240Z,3.00
2023-03-15T07:28:00.013Z,3.10
2023-03-15T07:30:27.168Z,3.10
2023-03-15T07:32:53.905Z,3.00
2023-03-15T07:35:20.707Z,2.90
2023-03-15T07:37:47.420Z,2.80
2023-03-15T07:40:15.895Z,2.90
2023-03-15T07:42:42.828Z,3.00
2023-03-15T07:45:10.898Z,3.00
2023-03-15T07:47:37.982Z,2.70
2023-03-15T07:50:05.608Z,2.60
2023-03-15T07:52:32.428Z,2.60
2023-03-15T07:54:59.237Z,2.60
2023-03-15T07:57:28.734Z,2.40
2023-03-15T07:59:56.039Z,2.30
2023-03-15T08:02:22.757Z,2.60
2023-03-15T08:04:51.185Z,2.60
2023-03-15T08:07:17.960Z,2.50
2023-03-15T08:09:44.890Z,2.60
2023-03-15T08:12:12.128Z,2.60
2023-03-15T08:14:38.816Z,2.40
2023-03-15T08:17:05.462Z,2.50
2023-03-15T08:19:33.174Z,2.60
2023-03-15T08:21:59.984Z,2.50
2023-03-15T08:24:27.080Z,2.60
2023-03-15T08:26:53.771Z,2.70
2023-03-15T08:29:20.542Z,2.80
2023-03-15T08:31:47.281Z,2.70
2023-03-15T08:34:13.931Z,2.80
2023-03-15T08:36:41.844Z,2.90
2023-03-15T08:39:08.788Z,2.90
2023-03-15T08:41:35.600Z,3.00
2023-03-15T08:44:02.298Z,2.90
2023-03-15T08:46:29.133Z,2.80
2023-03-15T08:48:55.814Z,2.80
2023-03-15T08:51:25.414Z,2.60
2023-03-15T08:53:53.045Z,2.70
2023-03-15T08:56:20.131Z,2.60
2023-03-15T08:58:47.391Z,2.70
2023-03-15T09:01:15.915Z,2.80
2023-03-15T09:03:42.564Z,2.70
2023-03-15T09:06:09.747Z,2.80
2023-03-15T09:08:36.443Z,2.70
2023-03-15T09:11:03.840Z,2.70
2023-03-15T09:13:31.376Z,2.80
2023-03-15T09:15:58.133Z,2.70
2023-03-15T09:18:25.639Z,2.80
2023-03-15T09:20:52.577Z,2.80
2023-03-15T09:23:19.392Z,2.80
2023-03-15T09:25:46.207Z,2.90
2023-03-15T09:28:12.985Z,3.10
2023-03-15T09:30:41.306Z,3.00
2023-03-15T09:33:08.715Z,2.90
2023-03-15T09:35:35.736Z,3.10
2023-03-15T09:38:04.126Z,3.20
2023-03-15T09:40:38.435Z,3.20
2023-03-15T09:43:08.831Z,3.10
2023-03-15T09:46:17.365Z,3.20
2023-03-15T09:49:07.712Z,3.20
2023-03-15T09:51:48.177Z,3.20
2023-03-15T09:54:23.656Z,3.20
2023-03-15T09:57:09.966Z,3.30
2023-03-15T09:59:42.914Z,3.20
2023-03-15T10:02:31.395Z,3.30
2023-03-15T10:05:23.151Z,3.30
2023-03-15T10:07:49.792Z,3.30
2023-03-15T10:10:19.202Z,3.40
2023-03-15T10:12:55.041Z,3.40
2023-03-15T10:15:36.546Z,3.40
2023-03-15T10:18:31.196Z,3.30
2023-03-15T10:21:07.597Z,3.30
2023-03-15T10:23:58.544Z,3.20
2023-03-15T10:26:29.492Z,3.30
2023-03-15T10:28:56.500Z,3.40
2023-03-15T10:31:36.910Z,3.30
2023-03-15T10:34:14.008Z,3.50
2023-03-15T10:36:46.282Z,3.50
2023-03-15T10:39:13.025Z,3.50
2023-03-15T10:41:45.281Z,3.50
2023-03-15T10:44:26.554Z,3.70
2023-03-15T10:47:06.942Z,3.50
2023-03-15T10:49:41.170Z,3.60
2023-03-15T10:52:35.429Z,3.50
2023-03-15T10:55:07.557Z,3.50
2023-03-15T10:57:39.123Z,3.60
2023-03-15T11:00:26.214Z,3.70
2023-03-15T11:03:04.271Z,3.70
2023-03-15T11:05:38.177Z,3.90
2023-03-15T11:08:10.788Z,3.80
2023-03-15T11:10:37.633Z,3.70
2023-03-15T11:13:22.404Z,3.80
2023-03-15T11:16:13.819Z,3.80
2023-03-15T11:18:48.815Z,3.80
2023-03-15T11:21:19.996Z,3.90
2023-03-15T11:23:49.483Z,3.80
2023-03-15T11:26:39.211Z,3.80
2023-03-15T11:29:24.673Z,3.90
2023-03-15T11:31:52.136Z,3.90
2023-03-15T11:34:27.630Z,3.90
2023-03-15T11:37:07.955Z,3.90
2023-03-15T11:39:45.233Z,4.00
2023-03-15T11:42:22.902Z,4.10
2023-03-15T11:44:54.994Z,4.10
2023-03-15T11:48:04.421Z,4.10
2023-03-15T11:50:31.140Z,4.00
2023-03-15T11:53:03.393Z,4.00
2023-03-15T11:55:32.204Z,4.00
2023-03-15T11:58:29.995Z,4.10
2023-03-15T12:01:05.647Z,4.20
2023-03-15T12:03:40.250Z,4.30
2023-03-15T12:06:18.939Z,4.30
2023-03-15T12:08:56.667Z,4.50
2023-03-15T12:11:23.276Z,4.30
2023-03-15T12:13:59.173Z,4.40
2023-03-15T12:16:30.984Z,4.40
2023-03-15T12:19:33.615Z,4.30
2023-03-15T12:22:00.630Z,4.30
2023-03-15T12:24:36.009Z,4.40
2023-03-15T12:27:05.378Z,4.60
2023-03-15T12:29:35.385Z,4.60
2023-03-15T12:32:02.000Z,4.70
2023-03-15T12:34:44.513Z,4.60
2023-03-15T12:37:37.886Z,4.60
2023-03-15T12:40:16.833Z,4.60
2023-03-15T12:42:43.406Z,4.60
2023-03-15T12:45:16.807Z,4.70
2023-03-15T12:47:52.429Z,4.70
2023-03-15T12:50:37.586Z,4.80
2023-03-15T12:53:39.856Z,4.80
2023-03-15T12:56:28.166Z,4.70
2023-03-15T12:59:02.070Z,4.70
2023-03-15T13:01:28.736Z,4.80
2023-03-15T13:03:58.424Z,4.90
2023-03-15T13:06:54.228Z,5.00
2023-03-15T13:09:53.673Z,5.10
2023-03-15T13:12:28.879Z,5.10
2023-03-15T13:15:03.655Z,5.10
2023-03-15T13:17:50.768Z,5.10
2023-03-15T13:20:35.895Z,5.20
2023-03-15T13:23:27.255Z,5.50
2023-03-15T13:26:23.261Z,5.70
2023-03-15T13:28:58.927Z,5.90
2023-03-15T13:31:30.780Z,6.30
2023-03-15T13:34:11.018Z,6.10
2023-03-15T13:36:47.473Z,5.80
2023-03-15T13:39:27.584Z,6.00
2023-03-15T13:42:01.752Z,5.80
2023-03-15T13:44:30.397Z,5.70
2023-03-15T13:47:01.131Z,5.50
2023-03-15T13:49:32.924Z,5.60
2023-03-15T13:52:01.808Z,5.60
2023-03-15T13:54:33.523Z,5.60
2023-03-15T13:57:08.790Z,5.50
2023-03-15T13:59:44.094Z,5.50
2023-03-15T14:02:19.680Z,5.10
2023-03-15T14:04:52.544Z,4.80
2023-03-15T14:07:37.483Z,4.90
2023-03-15T14:10:23.480Z,5.30
2023-03-15T14:12:52.130Z,5.50
2023-03-15T14:15:34.263Z,5.40
2023-03-15T14:18:07.118Z,5.30
2023-03-15T14:20:46.153Z,5.40
2023-03-15T14:23:17.267Z,5.40
2023-03-15T14:25:50.506Z,5.30
2023-03-15T14:28:17.336Z,5.20
2023-03-15T14:30:52.784Z,5.30
2023-03-15T14:33:37.798Z,5.20
2023-03-15T14:36:21.247Z,5.10
2023-03-15T14:38:53.837Z,5.00
2023-03-15T14:41:37.055Z,5.00
2023-03-15T14:44:03.756Z,5.00
2023-03-15T14:46:31.631Z,5.10
2023-03-15T14:48:58.516Z,5.20
2023-03-15T14:51:28.410Z,5.00
2023-03-15T14:53:56.753Z,4.90
2023-03-15T14:56:25.171Z,4.90
2023-03-15T14:58:54.181Z,5.00
2023-03-15T15:01:25.179Z,5.00
2023-03-15T15:04:01.619Z,5.00
2023-03-15T15:06:31.852Z,5.10
2023-03-15T15:09:00.024Z,4.90
2023-03-15T15:11:27.146Z,4.80
2023-03-15T15:13:54.836Z,5.10
2023-03-15T15:16:21.741Z,5.50
2023-03-15T15:18:48.634Z,5.60
2023-03-15T15:21:31.151Z,5.70
2023-03-15T15:23:59.771Z,5.60
2023-03-15T15:26:28.956Z,5.70
2023-03-15T15:28:56.576Z,5.80
2023-03-15T15:31:25.360Z,5.90
2023-03-15T15:33:53.465Z,6.00
2023-03-15T15:36:36.495Z,5.90
2023-03-15T15:39:07.129Z,6.10
2023-03-15T15:41:34.099Z,6.10
2023-03-15T15:44:01.419Z,6.00
2023-03-15T15:46:28.158Z,6.10
2023-03-15T15:48:54.920Z,6.20
2023-03-15T15:51:27.883Z,6.10
2023-03-15T15:54:04.998Z,6.20
2023-03-15T15:56:40.013Z,6.40
2023-03-15T15:59:13.373Z,6.30
2023-03-15T16:01:56.599Z,6.20
2023-03-15T16:04:26.108Z,6.20
2023-03-15T16:06:59.167Z,6.20
2023-03-15T16:09:27.978Z,6.30
2023-03-15T16:11:55.157Z,6.30
2023-03-15T16:14:21.857Z,6.30
2023-03-15T16:16:48.596Z,6.20
2023-03-15T16:19:15.265Z,6.30
2023-03-15T16:21:47.801Z,6.20
2023-03-15T16:24:30.101Z,6.20
2023-03-15T16:27:01.810Z,6.10
2023-03-15T16:29:37.864Z,6.10
2023-03-15T16:32:15.871Z,6.10
2023-03-15T16:34:49.777Z,6.10
2023-03-15T16:37:29.132Z,6.20
2023-03-15T16:39:56.008Z,6.10
2023-03-15T16:42:26.206Z,6.10
2023-03-15T16:44:53.333Z,6.20
2023-03-15T16:47:20.356Z,6.30
2023-03-15T16:49:47.106Z,6.30
2023-03-15T16:52:15.869Z,6.20
2023-03-15T16:54:43.939Z,6.20
2023-03-15T16:57:22.751Z,6.20
2023-03-15T16:59:50.713Z,6.20
2023-03-15T17:02:25.437Z,6.00
2023-03-15T17:04:55.102Z,6.10
2023-03-15T17:07:37.314Z,6.10
2023-03-15T17:10:34.358Z,6.00
2023-03-15T17:13:02.350Z,5.90
2023-03-15T17:15:30.945Z,5.80
2023-03-15T17:17:57.974Z,5.80
2023-03-15T17:20:29.341Z,5.60
2023-03-15T17:23:04.441Z,5.30
2023-03-15T17:25:32.503Z,5.40
2023-03-15T17:28:00.204Z,5.30
2023-03-15T17:30:30.233Z,5.10
2023-03-15T17:32:57.226Z,5.10
2023-03-15T17:35:30.573Z,4.90
2023-03-15T17:37:57.358Z,4.90
2023-03-15T17:40:30.289Z,4.60
2023-03-15T17:42:59.184Z,4.60
2023-03-15T17:45:28.558Z,4.50
2023-03-15T17:47:56.293Z,4.60
2023-03-15T17:50:25.619Z,4.50
2023-03-15T17:53:32.092Z,4.50
2023-03-15T17:55:58.906Z,4.60
2023-03-15T17:58:27.206Z,4.50
2023-03-15T18:00:56.987Z,4.40
2023-03-15T18:03:24.830Z,4.50
2023-03-15T18:05:51.937Z,4.30
2023-03-15T18:08:21.295Z,4.10
2023-03-15T18:10:50.006Z,4.10
2023-03-15T18:13:21.272Z,4.00
2023-03-15T18:15:49.690Z,3.80
2023-03-15T18:18:16.642Z,3.70
2023-03-15T18:20:45.157Z,3.50
2023-03-15T18:23:14.319Z,3.70
2023-03-15T18:25:41.023Z,3.80
2023-03-15T18:28:07.689Z,3.80
2023-03-15T18:30:35.031Z,3.60
2023-03-15T18:33:01.910Z,3.50
2023-03-15T18:35:34.242Z,3.30
2023-03-15T18:38:01.018Z,3.20
2023-03-15T18:40:30.590Z,3.50
2023-03-15T18:42:57.979Z,3.60
2023-03-15T18:45:30.653Z,3.40
2023-03-15T18:47:59.730Z,3.30
2023-03-15T18:50:26.681Z,3.20
2023-03-15T18:52:53.315Z,3.20
2023-03-15T18:55:23.665Z,3.10
2023-03-15T18:57:52.001Z,3.10
2023-03-15T19:00:28.299Z,3.00
2023-03-15T19:02:58.399Z,2.90
2023-03-15T19:05:29.765Z,2.80
2023-03-15T19:07:56.926Z,2.90
2023-03-15T19:10:24.480Z,3.00
2023-03-15T19:12:52.318Z,2.90
2023-03-15T19:15:19.772Z,2.80
2023-03-15T19:17:48.880Z,2.70
2023-03-15T19:20:17.508Z,2.60
2023-03-15T19:22:45.327Z,2.70
2023-03-15T19:25:13.829Z,2.70
2023-03-15T19:27:43.906Z,2.70
2023-03-15T19:30:16.295Z,2.70
2023-03-15T19:32:45.646Z,2.70
2023-03-15T19:35:12.541Z,2.70
2023-03-15T19:37:39.657Z,2.70
2023-03-15T19:40:09.298Z,2.60
2023-03-15T19:42:35.997Z,2.60
2023-03-15T19:45:03.117Z,2.60
2023-03-15T19:47:29.781Z,2.60
2023-03-15T19:49:56.571Z,2.70
2023-03-15T19:52:23.307Z,2.70
2023-03-15T19:54:51.719Z,2.60
2023-03-15T19:57:18.408Z,2.50
2023-03-15T19:59:45.009Z,2.50
2023-03-15T20:02:13.030Z,2.50
2023-03-15T20:04:40.283Z,2.50
2023-03-15T20:07:06.979Z,2.50
2023-03-15T20:09:38.698Z,2.50
2023-03-15T20:12:07.068Z,2.40
2023-03-15T20:14:34.053Z,2.50
2023-03-15T20:17:01.371Z,2.40
2023-03-15T20:19:28.028Z,2.40
2023-03-15T20:21:54.789Z,2.30
2023-03-15T20:24:21.587Z,2.30
2023-03-15T20:26:50.401Z,2.20
2023-03-15T20:29:17.614Z,2.10
2023-03-15T20:31:44.438Z,2.20
2023-03-15T20:34:12.050Z,2.30
2023-03-15T20:36:39.009Z,2.30
2023-03-15T20:39:05.735Z,2.30
2023-03-15T20:41:35.475Z,2.20
2023-03-15T20:44:02.181Z,2.20
2023-03-15T20:46:29.540Z,2.10
2023-03-15T20:48:56.253Z,2.00
2023-03-15T20:51:23.015Z,2.00
2023-03-15T20:53:49.748Z,2.10
2023-03-15T20:56:17.879Z,1.90
2023-03-15T20:58:45.132Z,1.90
2023-03-15T21:01:16.764Z,2.00
2023-03-15T21:03:45.242Z,2.00
2023-03-15T21:06:13.139Z,1.90
2023-03-15T21:08:40.123Z,1.90
2023-03-15T21:11:07.576Z,1.90
2023-03-15T21:13:34.954Z,1.70
2023-03-15T21:16:04.342Z,1.80
2023-03-15T21:18:32.420Z,1.70
2023-03-15T21:21:03.610Z,1.70
2023-03-15T21:23:31.479Z,1.80
2023-03-15T21:26:00.496Z,1.80
2023-03-15T21:28:27.609Z,1.60
2023-03-15T21:30:55.303Z,1.70
2023-03-15T21:33:24.181Z,1.80
2023-03-15T21:35:51.310Z,1.70
2023-03-15T21:38:18.710Z,1.60
2023-03-15T21:40:47.341Z,1.70
2023-03-15T21:43:13.978Z,1.70
2023-03-15T21:45:42.006Z,1.60
2023-03-15T21:48:09.238Z,1.60
2023-03-15T21:50:36.472Z,1.60
2023-03-15T21:53:03.670Z,1.60
2023-03-15T21:55:33.556Z,1.50
2023-03-15T21:58:07.728Z,1.50
2023-03-15T22:00:35.459Z,1.60
2023-03-15T22:03:02.107Z,1.50
2023-03-15T22:05:28.730Z,1.50
2023-03-15T22:07:55.500Z,1.50
2023-03-15T22:10:23.194Z,1.50
2023-03-15T22:12:50.048Z,1.40
2023-03-15T22:15:16.786Z,1.40
2023-03-15T22:17:45.042Z,1.40
2023-03-15T22:20:16.509Z,1.30
2023-03-15T22:22:47.666Z,1.30
2023-03-15T22:25:14.905Z,1.20
2023-03-15T22:27:44.444Z,1.10
2023-03-15T22:30:17.588Z,1.10
2023-03-15T22:32:44.657Z,1.20
2023-03-15T22:35:12.613Z,1.20
2023-03-15T22:37:39.614Z,1.30
2023-03-15T22:40:07.147Z,1.20
2023-03-15T22:42:33.813Z,1.10
2023-03-15T22:45:00.494Z,1.20
2023-03-15T22:47:27.851Z,1.20
2023-03-15T22:49:55.435Z,1.20
2023-03-15T22:52:22.092Z,1.10
2023-03-15T22:54:48.915Z,1.10
2023-03-15T22:57:15.568Z,1.10
2023-03-15T22:59:42.923Z,1.10
2023-03-15T23:02:11.924Z,1.00
2023-03-15T23:04:39.080Z,1.10
2023-03-15T23:07:05.845Z,1.10
2023-03-15T23:09:32.487Z,1.00
2023-03-15T23:11:59.112Z,1.00
2023-03-15T23:14:25.762Z,0.90
2023-03-15T23:16:52.393Z,0.90
2023-03-15T23:19:19.282Z,0.90
2023-03-15T23:21:45.979Z,0.80
2023-03-15T23:24:13.879Z,0.70
2023-03-15T23:26:40.539Z,0.90
2023-03-15T23:29:10.744Z,0.80
2023-03-15T23:31:41.734Z,0.80
2023-03-15T23:34:08.608Z,0.90
2023-03-15T23:36:35.905Z,0.90
2023-03-15T23:39:02.567Z,0.80
2023-03-15T23:41:29.267Z,0.90
2023-03-15T23:43:56.969Z,0.90
2023-03-15T23:46:23.853Z,0.90
2023-03-15T23:48:52.302Z,0.90
2023-03-15T23:51:19.505Z,0.90
2023-03-15T23:53:46.116Z,0.90
2023-03-15T23:56:12.754Z,0.80
2023-03-15T23:58:39.521Z,0.70
